Time;durP1;ratioP1;P1;durP2;ratioP2;P2;SDS_P1;SDS_P2;PMS_P1;PMS_P2;Temp;Humidity;BMP_temperature;BMP_pressure;BME280_temperature;BME280_humidity;BME280_pressure;Samples;Min_cycle;Max_cycle;Signal;HPM_P1;HPM_P2
2023/03/05 00:00:07;;;;;;;;;;;;;;;4.31;62.10;100276.19;1085006;54;20421;-80
2023/03/05 00:01:10;;;;;;;;;;;;;;;4.24;62.65;100274.06;1085102;54;19954;-80
2023/03/05 00:02:14;;;;;;;;;;;;;;;4.21;62.59;100265.34;1085613;54;19950;-80
2023/03/05 00:03:16;;;;;;;;;;;;;;;4.23;62.64;100267.88;1085393;54;19942;-79
2023/03/05 00:04:20;;;;;;;;;;;;;;;4.21;62.69;100267.13;1085373;54;20558;-79
2023/03/05 00:05:21;;;;;;;;;;;;;;;4.17;62.84;100266.47;1085365;54;19950;-80
2023/03/05 00:06:26;;;;;;;;;;;;;;;4.20;62.90;100268.94;1083631;54;20512;-79
2023/03/05 00:07:27;;;;;;;;;;;;;;;4.20;63.18;100266.28;1083712;54;19969;-79
2023/03/05 00:08:34;;;;;;;;;;;;;;;4.20;62.96;100261.00;1083778;54;20065;-79
2023/03/05 00:09:35;;;;;;;;;;;;;;;4.18;62.99;100268.19;1084002;47;19973;-79
2023/03/05 00:10:39;;;;;;;;;;;;;;;4.22;62.70;100261.75;1083536;54;19950;-80
2023/03/05 00:11:40;;;;;;;;;;;;;;;4.29;62.58;100267.50;1083787;54;19950;-79
2023/03/05 00:12:43;;;;;;;;;;;;;;;4.32;62.85;100267.28;1083562;54;19965;-79
2023/03/05 00:13:45;;;;;;;;;;;;;;;4.43;62.44;100265.75;1083596;54;19989;-79
2023/03/05 00:14:48;;;;;;;;;;;;;;;4.47;62.34;100268.09;1083826;47;19947;-79
2023/03/05 00:15:49;;;;;;;;;;;;;;;4.54;61.86;100260.63;1083789;54;19947;-78
2023/03/05 00:16:53;;;;;;;;;;;;;;;4.51;62.41;100261.66;1083945;54;19946;-79
2023/03/05 00:17:54;;;;;;;;;;;;;;;4.44;62.26;100263.00;1083606;54;19951;-79
2023/03/05 00:18:59;;;;;;;;;;;;;;;4.44;62.46;100259.50;1084097;54;19958;-79
2023/03/05 00:20:00;;;;;;;;;;;;;;;4.46;62.58;100261.09;1083816;54;20453;-78
2023/03/05 00:21:04;;;;;;;;;;;;;;;4.43;62.55;100261.31;1083889;54;19977;-79
2023/03/05 00:22:05;;;;;;;;;;;;;;;4.37;63.00;100261.69;1084082;54;19951;-79
2023/03/05 00:23:09;;;;;;;;;;;;;;;4.35;63.22;100266.25;1083900;54;19977;-80
2023/03/05 00:24:15;;;;;;;;;;;;;;;4.36;62.78;100260.88;1083772;54;19950;-80
2023/03/05 00:25:19;;;;;;;;;;;;;;;4.40;62.79;100261.50;1083431;54;19973;-79
2023/03/05 00:26:21;;;;;;;;;;;;;;;4.34;62.84;100253.97;1083739;54;19950;-79
2023/03/05 00:27:25;;;;;;;;;;;;;;;4.36;62.92;100257.34;1084173;39;20314;-79
2023/03/05 00:28:26;;;;;;;;;;;;;;;4.40;62.69;100260.66;1083745;54;19981;-80
2023/03/05 00:29:31;;;;;;;;;;;;;;;4.36;62.96;100262.66;1083884;54;19957;-79
2023/03/05 00:30:32;;;;;;;;;;;;;;;4.43;62.84;100260.47;1084066;39;20551;-79
2023/03/05 00:31:37;;;;;;;;;;;;;;;4.48;62.76;100261.84;1083708;54;19946;-79
2023/03/05 00:32:38;;;;;;;;;;;;;;;4.53;62.47;100262.41;1083739;54;19951;-79
2023/03/05 00:33:42;;;;;;;;;;;;;;;4.48;62.72;100256.56;1085088;39;20305;-79
2023/03/05 00:34:43;;;;;;;;;;;;;;;4.43;62.91;100258.69;1084499;39;20289;-80
2023/03/05 00:35:48;;;;;;;;;;;;;;;4.38;62.96;100255.47;1083605;54;19950;-80
2023/03/05 00:36:50;;;;;;;;;;;;;;;4.34;63.27;100260.13;1083780;54;19946;-79
2023/03/05 00:37:54;;;;;;;;;;;;;;;4.33;63.36;100249.63;1083594;54;19957;-80
2023/03/05 00:38:55;;;;;;;;;;;;;;;4.34;63.34;100253.97;1083641;54;19947;-79
2023/03/05 00:40:01;;;;;;;;;;;;;;;4.35;63.25;100250.34;1084008;39;20452;-79
2023/03/05 00:41:02;;;;;;;;;;;;;;;4.34;63.32;100248.69;1083637;54;19982;-78
2023/03/05 00:42:06;;;;;;;;;;;;;;;4.39;63.20;100251.88;1083514;54;19950;-80
2023/03/05 00:43:08;;;;;;;;;;;;;;;4.43;63.03;100245.44;1083722;54;19950;-79
2023/03/05 00:44:12;;;;;;;;;;;;;;;4.39;63.29;100249.22;1083670;54;19957;-79
2023/03/05 00:45:13;;;;;;;;;;;;;;;4.25;63.22;100246.63;1083558;54;19950;-79
2023/03/05 00:46:18;;;;;;;;;;;;;;;4.37;63.22;100246.69;1083621;54;19958;-79
2023/03/05 00:47:21;;;;;;;;;;;;;;;4.46;62.81;100241.75;1084007;54;19994;-79
2023/03/05 00:48:22;;;;;;;;;;;;;;;4.51;62.75;100247.56;1083177;54;19946;-80
2023/03/05 00:49:26;;;;;;;;;;;;;;;4.58;62.24;100246.19;1083601;54;19946;-79
2023/03/05 00:50:27;;;;;;;;;;;;;;;4.59;62.37;100242.59;1084773;54;19960;-80
2023/03/05 00:51:31;;;;;;;;;;;;;;;4.55;62.63;100245.56;1084330;54;19954;-80
2023/03/05 00:52:32;;;;;;;;;;;;;;;4.45;62.71;100240.88;1084213;54;19954;-79
2023/03/05 00:53:36;;;;;;;;;;;;;;;4.48;62.84;100240.69;1083816;54;19977;-79
2023/03/05 00:54:37;;;;;;;;;;;;;;;4.45;62.95;100246.16;1084000;39;20529;-79
2023/03/05 00:55:44;;;;;;;;;;;;;;;4.43;62.87;100240.16;1083632;54;19968;-79
2023/03/05 00:56:48;;;;;;;;;;;;;;;4.39;62.83;100235.16;1083792;54;19957;-79
2023/03/05 00:57:49;;;;;;;;;;;;;;;4.35;63.12;100237.13;1083920;54;19946;-79
2023/03/05 00:58:52;;;;;;;;;;;;;;;4.41;62.87;100235.88;1084332;46;19973;-78
2023/03/05 00:59:53;;;;;;;;;;;;;;;4.42;62.62;100237.56;1083649;54;19974;-79
2023/03/05 01:00:59;;;;;;;;;;;;;;;4.42;62.79;100232.28;1083720;54;19954;-79
2023/03/05 01:02:00;;;;;;;;;;;;;;;4.43;62.83;100226.91;1084050;54;19954;-78
2023/03/05 01:03:03;;;;;;;;;;;;;;;4.48;62.90;100230.09;1084422;39;20184;-79
2023/03/05 01:04:05;;;;;;;;;;;;;;;4.49;62.59;100226.50;1084035;54;19950;-79
2023/03/05 01:05:09;;;;;;;;;;;;;;;4.58;62.67;100226.84;1084556;39;20388;-79
2023/03/05 01:06:11;;;;;;;;;;;;;;;4.59;62.23;100224.06;1083832;54;19986;-79
2023/03/05 01:07:15;;;;;;;;;;;;;;;4.51;62.58;100224.59;1083860;54;19953;-78
2023/03/05 01:08:16;;;;;;;;;;;;;;;4.48;62.80;100230.09;1084518;39;20353;-79
2023/03/05 01:09:20;;;;;;;;;;;;;;;4.46;62.78;100234.63;1084115;39;20433;-79
2023/03/05 01:10:22;;;;;;;;;;;;;;;4.41;63.09;100234.09;1083586;54;19947;-78
2023/03/05 01:11:28;;;;;;;;;;;;;;;4.40;62.87;100229.75;1083679;54;19968;-79
2023/03/05 01:12:29;;;;;;;;;;;;;;;4.45;62.91;100230.28;1084766;39;20611;-78
2023/03/05 01:13:33;;;;;;;;;;;;;;;4.54;62.54;100226.19;1083790;54;19950;-78
2023/03/05 01:14:35;;;;;;;;;;;;;;;4.54;62.74;100223.53;1084227;46;19954;-78
2023/03/05 01:15:39;;;;;;;;;;;;;;;4.52;62.47;100221.00;1083708;54;19980;-79
2023/03/05 01:16:40;;;;;;;;;;;;;;;4.46;62.95;100224.03;1083855;54;19969;-79
2023/03/05 01:17:44;;;;;;;;;;;;;;;4.41;62.93;100222.63;1083741;54;19950;-79
2023/03/05 01:18:45;;;;;;;;;;;;;;;4.40;62.91;100221.81;1083869;54;19947;-79
2023/03/05 01:19:48;;;;;;;;;;;;;;;4.34;63.17;100220.41;1083500;54;19989;-79
2023/03/05 01:20:49;;;;;;;;;;;;;;;4.34;63.42;100215.13;1084142;39;20574;-79
2023/03/05 01:21:53;;;;;;;;;;;;;;;4.32;63.24;100217.00;1084201;39;20440;-79
2023/03/05 01:22:55;;;;;;;;;;;;;;;4.29;63.44;100213.72;1083880;54;19958;-79
2023/03/05 01:23:58;;;;;;;;;;;;;;;4.36;63.20;100215.00;1085294;54;20924;-80
2023/03/05 01:24:59;;;;;;;;;;;;;;;4.38;63.17;100207.81;1085221;54;19955;-79
2023/03/05 01:26:03;;;;;;;;;;;;;;;4.42;62.91;100204.03;1085026;54;19958;-79
2023/03/05 01:27:07;;;;;;;;;;;;;;;4.36;63.23;100209.72;1085064;54;19946;-80
2023/03/05 01:28:11;;;;;;;;;;;;;;;4.41;63.28;100207.63;1085307;54;19954;-79
2023/03/05 01:29:12;;;;;;;;;;;;;;;4.48;62.93;100203.63;1085421;54;19984;-80
2023/03/05 01:30:17;;;;;;;;;;;;;;;4.50;62.87;100204.38;1085258;54;19953;-80
2023/03/05 01:31:18;;;;;;;;;;;;;;;4.40;62.96;100200.63;1085260;54;19950;-80
2023/03/05 01:32:21;;;;;;;;;;;;;;;4.34;63.46;100195.75;1085215;54;19951;-80
2023/03/05 01:33:23;;;;;;;;;;;;;;;4.35;63.36;100206.22;1086344;39;20459;-80
2023/03/05 01:34:26;;;;;;;;;;;;;;;4.39;63.42;100198.09;1085264;54;19973;-80
2023/03/05 01:35:27;;;;;;;;;;;;;;;4.32;63.64;100195.00;1085332;54;19946;-80
2023/03/05 01:36:31;;;;;;;;;;;;;;;4.28;63.78;100185.53;1085266;54;19950;-80
2023/03/05 01:37:32;;;;;;;;;;;;;;;4.39;63.62;100185.69;1085478;54;19951;-80
2023/03/05 01:38:36;;;;;;;;;;;;;;;4.42;63.40;100195.22;1083962;54;19953;-78
2023/03/05 01:39:37;;;;;;;;;;;;;;;4.37;63.58;100185.81;1083416;54;19993;-79
2023/03/05 01:40:43;;;;;;;;;;;;;;;4.33;63.51;100184.28;1084532;39;20641;-79
2023/03/05 01:41:47;;;;;;;;;;;;;;;4.33;63.64;100183.47;1083544;54;19991;-79
2023/03/05 01:42:56;;;;;;;;;;;;;;;4.30;63.89;100178.34;1083673;46;19947;-79
2023/03/05 01:43:59;;;;;;;;;;;;;;;4.34;63.55;100180.69;1083760;54;19957;-80
2023/03/05 01:45:04;;;;;;;;;;;;;;;4.29;63.79;100185.47;1083552;54;19962;-79
2023/03/05 01:46:36;;;;;;;;;;;;;;;4.25;64.21;100180.47;1083438;54;19961;-80
2023/03/05 01:47:37;;;;;;;;;;;;;;;4.33;63.83;100180.81;1083295;54;20479;-79
2023/03/05 01:48:42;;;;;;;;;;;;;;;4.36;63.90;100184.09;1083561;54;20453;-79
2023/03/05 01:49:43;;;;;;;;;;;;;;;4.44;63.52;100175.63;1083486;54;19946;-79
2023/03/05 01:50:47;;;;;;;;;;;;;;;4.47;63.18;100180.72;1083924;39;20332;-78
2023/03/05 01:51:55;;;;;;;;;;;;;;;4.50;63.07;100180.53;1082591;54;19954;-78
2023/03/05 01:53:00;;;;;;;;;;;;;;;4.54;63.15;100181.19;1083592;54;19951;-79
2023/03/05 01:54:04;;;;;;;;;;;;;;;4.56;62.90;100176.63;1083633;54;19950;-79
2023/03/05 01:55:11;;;;;;;;;;;;;;;4.59;62.89;100181.72;1083275;54;19969;-79
2023/03/05 01:56:12;;;;;;;;;;;;;;;4.58;62.81;100176.53;1083502;54;19970;-78
2023/03/05 01:57:18;;;;;;;;;;;;;;;4.58;62.84;100173.88;1083338;54;19985;-79
2023/03/05 01:58:22;;;;;;;;;;;;;;;4.58;62.83;100176.53;1083566;54;19951;-80
2023/03/05 01:59:28;;;;;;;;;;;;;;;4.59;62.81;100170.28;1083561;54;19950;-79
2023/03/05 02:00:31;;;;;;;;;;;;;;;4.59;62.68;100167.63;1083485;54;19951;-79
2023/03/05 02:01:37;;;;;;;;;;;;;;;4.60;62.75;100167.50;1083688;54;19958;-79
2023/03/05 02:02:38;;;;;;;;;;;;;;;4.59;62.81;100167.63;1083353;54;19973;-80
2023/03/05 02:03:43;;;;;;;;;;;;;;;4.59;62.91;100168.47;1083918;54;19965;-79
2023/03/05 02:04:49;;;;;;;;;;;;;;;4.57;63.07;100162.44;1083858;54;19977;-78
2023/03/05 02:05:53;;;;;;;;;;;;;;;4.61;62.78;100160.44;1084720;39;20428;-78
2023/03/05 02:06:54;;;;;;;;;;;;;;;4.63;62.76;100161.19;1083670;54;19973;-78
2023/03/05 02:07:58;;;;;;;;;;;;;;;4.60;63.07;100162.22;1083338;54;20030;-78
2023/03/05 02:08:59;;;;;;;;;;;;;;;4.60;62.67;100159.56;1083665;54;19981;-78
2023/03/05 02:10:03;;;;;;;;;;;;;;;4.61;62.84;100155.13;1083412;54;19957;-78
2023/03/05 02:11:04;;;;;;;;;;;;;;;4.59;62.98;100157.03;1084114;39;20586;-78
2023/03/05 02:12:08;;;;;;;;;;;;;;;4.60;62.98;100158.75;1083704;54;19961;-79
2023/03/05 02:13:11;;;;;;;;;;;;;;;4.60;62.86;100150.78;1084099;54;19979;-77
2023/03/05 02:14:17;;;;;;;;;;;;;;;4.61;62.63;100155.13;1084420;39;20459;-78
2023/03/05 02:15:18;;;;;;;;;;;;;;;4.63;62.95;100161.19;1083784;46;19977;-79
2023/03/05 02:16:22;;;;;;;;;;;;;;;4.60;62.76;100148.16;1083759;54;19973;-78
2023/03/05 02:17:24;;;;;;;;;;;;;;;4.62;62.83;100151.53;1084366;54;19959;-78
2023/03/05 02:18:28;;;;;;;;;;;;;;;4.59;62.75;100157.03;1084656;54;19950;-78
2023/03/05 02:19:44;;;;;;;;;;;;;;;4.57;63.17;100157.16;1085524;46;19939;-79
2023/03/05 02:20:49;;;;;;;;;;;;;;;4.61;63.17;100155.13;1085493;54;20026;-78
2023/03/05 02:21:53;;;;;;;;;;;;;;;4.63;62.85;100154.06;1085979;54;19985;-78
2023/03/05 02:22:57;;;;;;;;;;;;;;;4.64;62.78;100153.13;1085530;54;19957;-78
2023/03/05 02:23:58;;;;;;;;;;;;;;;4.61;63.11;100155.13;1085865;54;19978;-79
2023/03/05 02:25:01;;;;;;;;;;;;;;;4.46;63.39;100157.84;1085834;54;19968;-79
2023/03/05 02:26:05;;;;;;;;;;;;;;;4.39;64.00;100156.56;1085962;54;19973;-79
2023/03/05 02:27:09;;;;;;;;;;;;;;;4.35;64.14;100152.41;1087199;54;19943;-80
2023/03/05 02:28:15;;;;;;;;;;;;;;;4.37;64.04;100153.19;1088121;54;19942;-79
2023/03/05 02:29:20;;;;;;;;;;;;;;;4.29;64.46;100156.34;1087874;54;19953;-80
2023/03/05 02:30:21;;;;;;;;;;;;;;;4.22;64.62;100145.31;1087793;54;19950;-79
2023/03/05 02:31:26;;;;;;;;;;;;;;;4.25;64.80;100148.72;1087949;54;19931;-80
2023/03/05 02:32:27;;;;;;;;;;;;;;;4.30;64.74;100149.25;1087996;46;19946;-80
2023/03/05 02:33:32;;;;;;;;;;;;;;;4.35;64.29;100148.00;1087161;54;19947;-80
2023/03/05 02:34:33;;;;;;;;;;;;;;;4.35;64.50;100144.47;1087649;54;19950;-79
2023/03/05 02:35:42;;;;;;;;;;;;;;;4.41;64.25;100144.09;1089321;46;19946;-79
2023/03/05 02:36:43;;;;;;;;;;;;;;;4.35;64.55;100145.34;1087974;54;19939;-80
2023/03/05 02:37:49;;;;;;;;;;;;;;;4.35;64.45;100142.69;1088796;46;19947;-79
2023/03/05 02:38:52;;;;;;;;;;;;;;;4.40;64.08;100147.69;1087351;54;19957;-79
2023/03/05 02:39:56;;;;;;;;;;;;;;;4.45;64.01;100145.56;1086286;54;19942;-79
2023/03/05 02:40:57;;;;;;;;;;;;;;;4.40;64.54;100145.03;1085186;54;19954;-79
2023/03/05 02:42:01;;;;;;;;;;;;;;;4.36;64.56;100144.41;1085010;54;19946;-79
2023/03/05 02:43:02;;;;;;;;;;;;;;;4.33;64.80;100141.13;1085207;54;19946;-80
2023/03/05 02:44:06;;;;;;;;;;;;;;;4.28;64.89;100137.91;1085359;54;19958;-80
2023/03/05 02:45:08;;;;;;;;;;;;;;;4.34;64.88;100143.66;1084790;54;19951;-78
2023/03/05 02:46:12;;;;;;;;;;;;;;;4.37;64.47;100138.16;1084441;54;19946;-79
2023/03/05 02:47:13;;;;;;;;;;;;;;;4.33;64.84;100141.13;1085040;54;19947;-79
2023/03/05 02:48:17;;;;;;;;;;;;;;;4.30;65.01;100130.72;1084615;54;19946;-78
2023/03/05 02:49:18;;;;;;;;;;;;;;;4.29;65.03;100136.97;1083316;54;19973;-79
2023/03/05 02:50:22;;;;;;;;;;;;;;;4.26;65.02;100123.91;1083432;54;19969;-79
2023/03/05 02:51:23;;;;;;;;;;;;;;;4.20;65.47;100130.50;1083170;54;19947;-79
2023/03/05 02:52:27;;;;;;;;;;;;;;;4.21;65.63;100122.44;1083197;54;19955;-78
2023/03/05 02:53:30;;;;;;;;;;;;;;;4.17;65.55;100128.88;1083132;54;19955;-79
2023/03/05 02:54:34;;;;;;;;;;;;;;;4.21;65.45;100126.88;1084050;54;19946;-80
2023/03/05 02:55:36;;;;;;;;;;;;;;;4.19;65.63;100126.16;1084433;54;19974;-79
2023/03/05 02:56:40;;;;;;;;;;;;;;;4.20;65.28;100127.84;1084446;54;20076;-79
2023/03/05 02:57:41;;;;;;;;;;;;;;;4.21;65.52;100124.22;1084563;54;19947;-80
2023/03/05 02:58:45;;;;;;;;;;;;;;;4.19;65.84;100128.78;1084412;54;20012;-80
2023/03/05 02:59:46;;;;;;;;;;;;;;;4.21;65.51;100126.88;1084187;54;20764;-80
2023/03/05 03:00:50;;;;;;;;;;;;;;;4.25;65.32;100122.25;1084006;54;19977;-79
2023/03/05 03:01:52;;;;;;;;;;;;;;;4.22;65.69;100121.50;1085663;39;20835;-80
2023/03/05 03:02:56;;;;;;;;;;;;;;;4.19;65.53;100126.16;1084235;54;19951;-79
2023/03/05 03:03:57;;;;;;;;;;;;;;;4.19;65.83;100118.22;1084361;54;19969;-80
2023/03/05 03:05:01;;;;;;;;;;;;;;;4.19;65.80;100119.03;1084323;54;20509;-79
2023/03/05 03:06:02;;;;;;;;;;;;;;;4.23;65.52;100117.03;1084267;54;20759;-80
2023/03/05 03:07:06;;;;;;;;;;;;;;;4.17;65.57;100117.47;1084289;54;19989;-79
2023/03/05 03:08:09;;;;;;;;;;;;;;;4.15;65.66;100114.94;1084238;54;19951;-79
2023/03/05 03:09:15;;;;;;;;;;;;;;;4.18;65.63;100116.50;1084154;54;19954;-80
2023/03/05 03:10:16;;;;;;;;;;;;;;;4.12;65.87;100112.47;1084345;54;19946;-79
2023/03/05 03:11:20;;;;;;;;;;;;;;;4.13;66.01;100106.22;1084229;54;19951;-79
2023/03/05 03:12:21;;;;;;;;;;;;;;;4.18;66.06;100109.41;1084027;54;19950;-80
2023/03/05 03:13:25;;;;;;;;;;;;;;;4.18;65.60;100112.06;1084247;54;19946;-79
2023/03/05 03:14:29;;;;;;;;;;;;;;;4.15;65.75;100108.75;1084255;54;19977;-79
2023/03/05 03:15:33;;;;;;;;;;;;;;;4.18;65.78;100111.22;1084378;54;19953;-79
2023/03/05 03:16:34;;;;;;;;;;;;;;;4.18;65.97;100106.75;1084319;54;19950;-80
2023/03/05 03:17:39;;;;;;;;;;;;;;;4.21;65.65;100111.00;1084256;54;19946;-80
2023/03/05 03:18:40;;;;;;;;;;;;;;;4.16;65.62;100100.72;1084297;54;19946;-79
2023/03/05 03:19:44;;;;;;;;;;;;;;;4.16;65.90;100106.00;1084054;54;19962;-80
2023/03/05 03:20:45;;;;;;;;;;;;;;;4.14;65.53;100102.66;1084196;54;19947;-79
2023/03/05 03:21:49;;;;;;;;;;;;;;;4.20;65.48;100110.16;1084426;54;19950;-80
2023/03/05 03:22:50;;;;;;;;;;;;;;;4.22;65.38;100102.09;1084306;54;19969;-79
2023/03/05 03:23:54;;;;;;;;;;;;;;;4.17;65.62;100105.06;1084385;54;19950;-80
2023/03/05 03:24:57;;;;;;;;;;;;;;;4.19;65.73;100104.97;1083595;54;19954;-79
2023/03/05 03:26:01;;;;;;;;;;;;;;;4.18;65.62;100090.88;1083200;54;20018;-79
2023/03/05 03:27:03;;;;;;;;;;;;;;;4.29;65.38;100097.25;1083311;54;19973;-79
2023/03/05 03:28:07;;;;;;;;;;;;;;;4.32;64.88;100097.91;1083970;54;19972;-79
2023/03/05 03:29:08;;;;;;;;;;;;;;;4.33;64.91;100091.66;1084394;47;19947;-79
2023/03/05 03:30:13;;;;;;;;;;;;;;;4.31;64.73;100096.19;1084098;54;19953;-79
2023/03/05 03:31:14;;;;;;;;;;;;;;;4.36;64.45;100085.31;1085318;54;19951;-79
2023/03/05 03:32:19;;;;;;;;;;;;;;;4.42;64.38;100095.50;1089025;46;19946;-79
2023/03/05 03:33:20;;;;;;;;;;;;;;;4.40;64.49;100088.59;1086922;54;19957;-79
2023/03/05 03:34:24;;;;;;;;;;;;;;;4.34;64.62;100089.88;1086854;47;19947;-79
2023/03/05 03:35:25;;;;;;;;;;;;;;;4.31;64.52;100095.38;1086698;54;19942;-79
2023/03/05 03:36:29;;;;;;;;;;;;;;;4.32;64.72;100095.25;1089299;39;20322;-80
2023/03/05 03:37:30;;;;;;;;;;;;;;;4.34;64.59;100084.59;1087071;54;19973;-80
2023/03/05 03:38:34;;;;;;;;;;;;;;;4.37;64.58;100089.66;1087221;54;19953;-80
2023/03/05 03:39:35;;;;;;;;;;;;;;;4.44;64.16;100079.50;1086810;54;19950;-79
2023/03/05 03:40:42;;;;;;;;;;;;;;;4.47;64.20;100080.13;1086990;54;20456;-79
2023/03/05 03:41:44;;;;;;;;;;;;;;;4.49;63.93;100083.53;1089369;46;19994;-80
2023/03/05 03:42:48;;;;;;;;;;;;;;;4.37;64.15;100077.28;1087222;54;19957;-80
2023/03/05 03:43:51;;;;;;;;;;;;;;;4.28;64.77;100075.25;1087298;54;19942;-80
2023/03/05 03:44:54;;;;;;;;;;;;;;;4.30;64.56;100070.69;1087575;54;19950;-80
2023/03/05 03:45:57;;;;;;;;;;;;;;;4.28;64.64;100074.38;1088286;46;19946;-80
2023/03/05 03:47:01;;;;;;;;;;;;;;;4.31;64.75;100071.53;1086870;54;19950;-79
2023/03/05 03:48:02;;;;;;;;;;;;;;;4.23;64.81;100072.06;1086114;54;19958;-79
2023/03/05 03:49:07;;;;;;;;;;;;;;;4.18;64.98;100074.16;1086051;54;19938;-80
2023/03/05 03:50:10;;;;;;;;;;;;;;;4.12;65.27;100078.06;1088259;46;19943;-80
2023/03/05 03:51:14;;;;;;;;;;;;;;;4.09;65.62;100070.34;1086395;54;19957;-79
2023/03/05 03:52:16;;;;;;;;;;;;;;;4.00;66.07;100076.22;1086101;54;19947;-79
2023/03/05 03:53:20;;;;;;;;;;;;;;;4.06;65.57;100070.56;1085832;47;20314;-79
2023/03/05 03:54:21;;;;;;;;;;;;;;;4.08;65.60;100068.63;1086427;54;19954;-79
2023/03/05 03:55:25;;;;;;;;;;;;;;;4.17;65.28;100068.00;1086489;46;19939;-79
2023/03/05 03:56:28;;;;;;;;;;;;;;;4.27;65.10;100072.69;1086199;54;19946;-80
2023/03/05 03:57:33;;;;;;;;;;;;;;;4.33;64.77;100067.84;1085930;54;19981;-79
2023/03/05 03:58:34;;;;;;;;;;;;;;;4.29;64.90;100070.78;1089317;39;20538;-80
2023/03/05 03:59:37;;;;;;;;;;;;;;;4.31;65.04;100064.44;1086445;46;19981;-79
2023/03/05 04:00:40;;;;;;;;;;;;;;;4.36;64.78;100067.63;1085655;46;19950;-79
2023/03/05 04:01:44;;;;;;;;;;;;;;;4.43;64.76;100062.78;1084271;54;19951;-79
2023/03/05 04:02:45;;;;;;;;;;;;;;;4.40;64.38;100057.69;1084427;54;19946;-79
2023/03/05 04:03:49;;;;;;;;;;;;;;;4.32;64.63;100060.84;1084135;54;19939;-80
2023/03/05 04:04:50;;;;;;;;;;;;;;;4.34;64.56;100063.41;1083720;54;19973;-79
2023/03/05 04:05:55;;;;;;;;;;;;;;;4.36;64.40;100066.78;1083467;54;19977;-79
2023/03/05 04:06:56;;;;;;;;;;;;;;;4.37;64.56;100057.88;1083303;54;19974;-79
2023/03/05 04:08:00;;;;;;;;;;;;;;;4.44;64.48;100059.16;1083254;54;19951;-79
2023/03/05 04:09:01;;;;;;;;;;;;;;;4.44;64.26;100060.97;1083049;54;19946;-79
2023/03/05 04:10:05;;;;;;;;;;;;;;;4.43;64.15;100057.47;1083561;39;20336;-79
2023/03/05 04:11:06;;;;;;;;;;;;;;;4.40;64.40;100062.97;1083980;39;20041;-79
2023/03/05 04:12:16;;;;;;;;;;;;;;;4.34;64.50;100064.25;1083648;54;19947;-80
2023/03/05 04:13:18;;;;;;;;;;;;;;;4.32;64.74;100058.19;1083324;54;19950;-78
2023/03/05 04:14:21;;;;;;;;;;;;;;;4.32;64.67;100060.00;1083438;54;19962;-79
2023/03/05 04:15:22;;;;;;;;;;;;;;;4.33;64.84;100061.72;1083822;47;19981;-79
2023/03/05 04:16:26;;;;;;;;;;;;;;;4.38;64.55;100059.59;1084101;54;20027;-79
2023/03/05 04:17:27;;;;;;;;;;;;;;;4.41;64.21;100058.50;1083988;54;19954;-80
2023/03/05 04:18:31;;;;;;;;;;;;;;;4.38;64.44;100064.88;1085317;54;19951;-80
2023/03/05 04:19:32;;;;;;;;;;;;;;;4.42;64.23;100057.56;1086757;54;19950;-80
2023/03/05 04:20:36;;;;;;;;;;;;;;;4.44;64.35;100064.44;1085562;54;19946;-80
2023/03/05 04:21:37;;;;;;;;;;;;;;;4.52;64.13;100067.44;1082958;54;19947;-79
2023/03/05 04:22:40;;;;;;;;;;;;;;;4.56;64.03;100048.69;1083729;39;20325;-79
2023/03/05 04:23:42;;;;;;;;;;;;;;;4.61;63.83;100057.16;1083448;54;19973;-80
2023/03/05 04:24:46;;;;;;;;;;;;;;;4.63;63.67;100052.63;1083127;54;19946;-79
2023/03/05 04:25:47;;;;;;;;;;;;;;;4.62;63.64;100054.41;1083675;39;20379;-81
2023/03/05 04:26:50;;;;;;;;;;;;;;;4.63;63.86;100057.91;1083206;54;19947;-79
2023/03/05 04:27:54;;;;;;;;;;;;;;;4.65;63.89;100051.56;1083310;46;19946;-80
2023/03/05 04:28:58;;;;;;;;;;;;;;;4.69;63.72;100053.00;1083451;54;19954;-80
2023/03/05 04:29:59;;;;;;;;;;;;;;;4.73;63.57;100048.34;1083314;54;20457;-79
2023/03/05 04:31:03;;;;;;;;;;;;;;;4.72;63.47;100048.47;1083749;54;19998;-79
2023/03/05 04:32:05;;;;;;;;;;;;;;;4.66;63.49;100050.59;1083745;54;19970;-79
2023/03/05 04:33:08;;;;;;;;;;;;;;;4.65;63.40;100042.75;1083955;54;19950;-80
2023/03/05 04:34:09;;;;;;;;;;;;;;;4.60;63.48;100050.16;1083932;54;19951;-79
2023/03/05 04:35:13;;;;;;;;;;;;;;;4.57;63.51;100053.03;1083967;54;19958;-79
2023/03/05 04:36:14;;;;;;;;;;;;;;;4.54;63.51;100054.09;1083661;54;19950;-79
2023/03/05 04:37:18;;;;;;;;;;;;;;;4.56;63.53;100046.91;1083782;54;19947;-79
2023/03/05 04:38:22;;;;;;;;;;;;;;;4.60;63.54;100044.88;1083570;54;19946;-79
2023/03/05 04:39:23;;;;;;;;;;;;;;;4.64;63.36;100043.69;1083948;54;19946;-79
2023/03/05 04:40:27;;;;;;;;;;;;;;;4.69;63.29;100041.59;1083848;54;19989;-80
2023/03/05 04:41:28;;;;;;;;;;;;;;;4.71;63.13;100044.13;1083436;54;19947;-79
2023/03/05 04:42:31;;;;;;;;;;;;;;;4.71;63.43;100044.97;1083128;54;19954;-79
2023/03/05 04:43:35;;;;;;;;;;;;;;;4.66;63.12;100042.66;1083180;54;19946;-78
2023/03/05 04:44:39;;;;;;;;;;;;;;;4.45;63.75;100047.63;1083325;54;19950;-78
2023/03/05 04:45:41;;;;;;;;;;;;;;;4.36;63.77;100051.75;1083186;54;19977;-79
2023/03/05 04:46:45;;;;;;;;;;;;;;;4.37;64.13;100052.59;1083229;54;20433;-78
2023/03/05 04:47:46;;;;;;;;;;;;;;;4.37;64.02;100047.28;1083539;54;19951;-79
2023/03/05 04:48:50;;;;;;;;;;;;;;;4.43;64.18;100046.91;1083299;54;19954;-79
2023/03/05 04:49:51;;;;;;;;;;;;;;;4.44;63.79;100051.22;1083385;54;19966;-79
2023/03/05 04:50:56;;;;;;;;;;;;;;;4.45;63.90;100044.97;1083273;54;19954;-79
2023/03/05 04:51:57;;;;;;;;;;;;;;;4.39;63.76;100050.69;1083291;54;19958;-79
2023/03/05 04:53:01;;;;;;;;;;;;;;;4.39;64.17;100053.34;1083523;54;19946;-80
2023/03/05 04:54:02;;;;;;;;;;;;;;;4.48;63.74;100039.47;1082878;54;19946;-79
2023/03/05 04:55:06;;;;;;;;;;;;;;;4.45;63.87;100044.13;1083314;54;19950;-80
2023/03/05 04:56:07;;;;;;;;;;;;;;;4.46;63.74;100049.31;1083278;54;19951;-79
2023/03/05 04:57:11;;;;;;;;;;;;;;;4.33;64.15;100049.31;1083537;54;19958;-80
2023/03/05 04:58:12;;;;;;;;;;;;;;;4.36;64.04;100043.81;1084038;39;20364;-80
2023/03/05 04:59:18;;;;;;;;;;;;;;;4.31;64.12;100047.72;1083167;54;19947;-79
2023/03/05 05:00:20;;;;;;;;;;;;;;;4.34;64.14;100039.59;1083051;54;19977;-80
2023/03/05 05:01:24;;;;;;;;;;;;;;;4.40;63.93;100041.78;1083525;39;20318;-80
2023/03/05 05:02:25;;;;;;;;;;;;;;;4.43;64.04;100046.03;1082993;54;20444;-80
2023/03/05 05:03:31;;;;;;;;;;;;;;;4.45;64.15;100042.31;1083835;54;19946;-80
2023/03/05 05:04:32;;;;;;;;;;;;;;;4.52;63.69;100042.75;1083472;54;19969;-80
2023/03/05 05:05:36;;;;;;;;;;;;;;;4.55;63.39;100036.38;1084474;47;19946;-80
2023/03/05 05:06:37;;;;;;;;;;;;;;;4.54;63.58;100032.91;1083700;54;19946;-79
2023/03/05 05:07:41;;;;;;;;;;;;;;;4.57;63.37;100038.00;1083488;54;19950;-79
2023/03/05 05:08:42;;;;;;;;;;;;;;;4.49;63.39;100035.88;1084271;39;20340;-80
2023/03/05 05:09:46;;;;;;;;;;;;;;;4.43;63.81;100030.16;1083622;54;19954;-80
2023/03/05 05:10:54;;;;;;;;;;;;;;;4.42;63.77;100029.31;1083492;54;19969;-80
2023/03/05 05:11:57;;;;;;;;;;;;;;;4.50;63.75;100032.28;1083444;54;19958;-80
2023/03/05 05:13:00;;;;;;;;;;;;;;;4.52;63.52;100029.50;1083939;39;20432;-79
2023/03/05 05:14:03;;;;;;;;;;;;;;;4.50;63.67;100024.34;1083365;54;19950;-79
2023/03/05 05:15:08;;;;;;;;;;;;;;;4.53;63.82;100032.03;1083502;54;19939;-79
2023/03/05 05:16:12;;;;;;;;;;;;;;;4.51;63.40;100031.31;1083465;54;19947;-78
2023/03/05 05:17:13;;;;;;;;;;;;;;;4.53;63.51;100029.41;1083545;54;19981;-78
2023/03/05 05:18:16;;;;;;;;;;;;;;;4.56;63.31;100035.44;1083596;54;20478;-80
2023/03/05 05:19:17;;;;;;;;;;;;;;;4.53;63.60;100032.03;1083660;54;19950;-79
2023/03/05 05:20:21;;;;;;;;;;;;;;;4.58;63.49;100034.38;1083610;54;19946;-80
2023/03/05 05:21:22;;;;;;;;;;;;;;;4.56;63.46;100028.34;1084140;39;20305;-80
2023/03/05 05:22:26;;;;;;;;;;;;;;;4.57;63.29;100032.69;1083736;54;20773;-79
2023/03/05 05:23:27;;;;;;;;;;;;;;;4.53;63.34;100029.41;1083519;54;19953;-81
2023/03/05 05:24:31;;;;;;;;;;;;;;;4.39;63.93;100037.47;1083723;54;19981;-79
2023/03/05 05:25:32;;;;;;;;;;;;;;;4.46;63.76;100036.06;1083563;54;19951;-80
2023/03/05 05:26:36;;;;;;;;;;;;;;;4.53;63.48;100036.50;1083521;54;20076;-80
2023/03/05 05:27:37;;;;;;;;;;;;;;;4.57;63.40;100026.53;1083363;54;20540;-80
2023/03/05 05:28:41;;;;;;;;;;;;;;;4.58;63.49;100029.06;1083406;54;19977;-80